^^
Your Local Weather - Clay, NY Station Historical Data
Daily Summary for February 19, 2018 Units:  Metric    English   Both
« Previous Day
Next Day »
Daily Weekly Monthly Yearly Custom
  High: Low: Average:
Temperature: 6.9 °C -3.7 °C 3.2 °C
Dew Point: 5.8 °C -6.8 °C -0.5 °C
Humidity: 94% 61% 78%
Wind Speed: 14.5km/h 0km/h 6.1km/h
Wind Gust: 24.1km/h - -
Wind- - ESE
Pressure: 1027 hPa 1018.5 hPa -
Precipitation: 9.14 mm    
Historical Graphs
 
 
Tabular Data for February 19, 2018
Time Temperature Dew Point Pressure Wind Wind Speed Wind Gust Humidity Rainfall Rate (Hourly) solar
00:02 -1.8 °C -6 °C 1027 hPa East 1.6 km/h 3.2 km/h 73% 0 mm 0 W/m2
00:08 -1.8 °C -6.2 °C 1027 hPa East 1.6 km/h 3.2 km/h 72% 0 mm 0 W/m2
00:14 -1.9 °C -6.3 °C 1027 hPa East 1.6 km/h 3.2 km/h 72% 0 mm 0 W/m2
00:20 -2.2 °C -6.4 °C 1027 hPa East 1.6 km/h 1.6 km/h 73% 0 mm 0 W/m2
00:26 -2.6 °C -6.4 °C 1026.6 hPa East 1.6 km/h 1.6 km/h 75% 0 mm 0 W/m2
00:32 -2.7 °C -6.5 °C 1026.6 hPa East 1.6 km/h 4.8 km/h 75% 0 mm 0 W/m2
00:38 -2.7 °C -6.3 °C 1026.3 hPa East 1.6 km/h 4.8 km/h 76% 0 mm 0 W/m2
00:44 -2.6 °C -6.3 °C 1026.3 hPa East 1.6 km/h 3.2 km/h 76% 0 mm 0 W/m2
00:50 -2.8 °C -6.3 °C 1026.3 hPa ENE 3.2 km/h 4.8 km/h 77% 0 mm 0 W/m2
00:56 -2.9 °C -6.3 °C 1026.3 hPa ENE 3.2 km/h 4.8 km/h 77% 0 mm 0 W/m2
01:02 -2.8 °C -6.3 °C 1026.3 hPa ENE 3.2 km/h 4.8 km/h 77% 0 mm 0 W/m2
01:08 -2.6 °C -6.2 °C 1026.3 hPa ENE 3.2 km/h 4.8 km/h 76% 0 mm 0 W/m2
01:14 -2.7 °C -6.3 °C 1026 hPa ENE 3.2 km/h 4.8 km/h 76% 0 mm 0 W/m2
01:20 -2.7 °C -6.3 °C 1026 hPa ENE 3.2 km/h 3.2 km/h 76% 0 mm 0 W/m2
01:26 -2.7 °C -6.4 °C 1026 hPa ENE 3.2 km/h 3.2 km/h 76% 0 mm 0 W/m2
01:32 -3 °C -6.6 °C 1026.3 hPa ENE 1.6 km/h 1.6 km/h 76% 0 mm 0 W/m2
01:38 -3.2 °C -6.7 °C 1026.3 hPa ENE 1.6 km/h 3.2 km/h 77% 0 mm 0 W/m2
01:44 -3.3 °C -6.6 °C 1026.3 hPa NE 1.6 km/h 4.8 km/h 78% 0 mm 0 W/m2
01:50 -3.3 °C -6.6 °C 1026 hPa ENE 3.2 km/h 4.8 km/h 78% 0 mm 0 W/m2
01:56 -2.9 °C -6.2 °C 1026 hPa ENE 3.2 km/h 4.8 km/h 78% 0 mm 0 W/m2
02:02 -3.1 °C -6.5 °C 1026.3 hPa East 3.2 km/h 4.8 km/h 77% 0 mm 0 W/m2
02:08 -3.2 °C -6.6 °C 1026 hPa ENE 3.2 km/h 4.8 km/h 77% 0 mm 0 W/m2
02:14 -3.1 °C -6.5 °C 1026 hPa East 4.8 km/h 4.8 km/h 77% 0 mm 0 W/m2
02:20 -3.2 °C -6.4 °C 1025.6 hPa ENE 4.8 km/h 6.4 km/h 78% 0 mm 0 W/m2
02:26 -3.1 °C -6.5 °C 1025.6 hPa ENE 4.8 km/h 6.4 km/h 77% 0 mm 0 W/m2
02:32 -3.4 °C -6.7 °C 1025.6 hPa ENE 4.8 km/h 6.4 km/h 78% 0 mm 0 W/m2
02:38 -3.3 °C -6.6 °C 1025.6 hPa East 4.8 km/h 6.4 km/h 78% 0 mm 0 W/m2
02:44 -3.2 °C -6.4 °C 1025.3 hPa ENE 4.8 km/h 4.8 km/h 78% 0 mm 0 W/m2
02:50 -3.3 °C -6.6 °C 1025.3 hPa ENE 4.8 km/h 4.8 km/h 78% 0 mm 0 W/m2
02:56 -3.1 °C -6.3 °C 1024.9 hPa ENE 4.8 km/h 9.7 km/h 78% 0 mm 0 W/m2
03:02 -3.2 °C -6.5 °C 1025.3 hPa ENE 1.6 km/h 3.2 km/h 78% 0 mm 0 W/m2
03:08 -3.3 °C -6.4 °C 1025.3 hPa ENE 1.6 km/h 3.2 km/h 79% 0 mm 0 W/m2
03:14 -3.2 °C -6.3 °C 1025.3 hPa ENE 1.6 km/h 1.6 km/h 79% 0 mm 0 W/m2
03:20 -3.3 °C -6.4 °C 1025.3 hPa ENE 1.6 km/h 1.6 km/h 79% 0 mm 0 W/m2
03:26 -3.7 °C -6.8 °C 1025.3 hPa ENE 1.6 km/h 4.8 km/h 79% 0 mm 0 W/m2
03:32 -3.6 °C -6.6 °C 1024.9 hPa NNE 1.6 km/h 8 km/h 80% 0 mm 0 W/m2
03:38 -3.1 °C -5.9 °C 1024.9 hPa ENE 3.2 km/h 8 km/h 81% 0 mm 0 W/m2
03:44 -2.7 °C -5.7 °C 1024.6 hPa SE 4.8 km/h 11.3 km/h 80% 0 mm 0 W/m2
03:50 -2.4 °C -5.6 °C 1024.6 hPa SE 3.2 km/h 3.2 km/h 79% 0 mm 0 W/m2
03:56 -1.6 °C -4.9 °C 1024.9 hPa ESE 4.8 km/h 16.1 km/h 78% 0 mm 0 W/m2
04:04 0.4 °C -4.2 °C 1024.6 hPa SE 8 km/h 12.9 km/h 71% 0 mm 0 W/m2
04:10 1.4 °C -3.8 °C 1024.6 hPa SSE 8 km/h 12.9 km/h 68% 0 mm 0 W/m2
04:16 2.2 °C -3.6 °C 1024.6 hPa SSE 11.3 km/h 12.9 km/h 66% 0 mm 0 W/m2
04:22 1.9 °C -3.9 °C 1024.6 hPa SE 9.7 km/h 9.7 km/h 65% 0 mm 0 W/m2
04:28 2.1 °C -3.7 °C 1024.6 hPa ESE 8 km/h 9.7 km/h 66% 0 mm 0 W/m2
04:34 2.2 °C -3.7 °C 1024.6 hPa SE 8 km/h 9.7 km/h 65% 0 mm 0 W/m2
04:40 2.1 °C -3.8 °C 1024.9 hPa SSE 8 km/h 8 km/h 65% 0 mm 0 W/m2
04:46 2 °C -3.9 °C 1024.9 hPa SSW 8 km/h 11.3 km/h 65% 0 mm 0 W/m2
04:52 2.3 °C -3.6 °C 1024.6 hPa SSE 9.7 km/h 11.3 km/h 65% 0 mm 0 W/m2
04:58 2.4 °C -3.7 °C 1024.6 hPa SSE 11.3 km/h 14.5 km/h 64% 0 mm 0 W/m2
05:04 2.4 °C -3.9 °C 1024.6 hPa SSE 11.3 km/h 20.9 km/h 63% 0 mm 0 W/m2
05:10 2.6 °C -3.8 °C 1024.6 hPa SE 9.7 km/h 14.5 km/h 63% 0 mm 0 W/m2
05:16 2.7 °C -3.9 °C 1024.6 hPa SE 11.3 km/h 17.7 km/h 62% 0 mm 0 W/m2
05:22 2.7 °C -3.6 °C 1024.6 hPa SE 12.9 km/h 20.9 km/h 63% 0 mm 0 W/m2
05:28 2.8 °C -3.7 °C 1024.6 hPa SSE 14.5 km/h 20.9 km/h 62% 0 mm 0 W/m2
05:34 2.8 °C -3.8 °C 1024.6 hPa SSE 12.9 km/h 22.5 km/h 62% 0 mm 0 W/m2
05:40 2.8 °C -3.8 °C 1024.6 hPa South 12.9 km/h 12.9 km/h 62% 0 mm 0 W/m2
05:46 2.7 °C -3.9 °C 1024.6 hPa SSE 12.9 km/h 17.7 km/h 62% 0 mm 0 W/m2
05:52 2.7 °C -3.9 °C 1024.3 hPa SSE 12.9 km/h 20.9 km/h 62% 0 mm 0 W/m2
05:58 2.7 °C -3.7 °C 1024.3 hPa SE 12.9 km/h 20.9 km/h 63% 0 mm 0 W/m2
06:04 2.7 °C -3.7 °C 1024.6 hPa South 12.9 km/h 16.1 km/h 63% 0 mm 0 W/m2
06:10 2.6 °C -3.7 °C 1023.9 hPa SSE 12.9 km/h 19.3 km/h 63% 0 mm 0 W/m2
06:16 2.6 °C -3.8 °C 1024.6 hPa SSE 11.3 km/h 19.3 km/h 63% 0 mm 0 W/m2
06:22 2.6 °C -3.8 °C 1024.6 hPa SSE 11.3 km/h 11.3 km/h 63% 0 mm 0 W/m2
06:28 2.6 °C -3.7 °C 1024.3 hPa South 12.9 km/h 14.5 km/h 63% 0 mm 0 W/m2
06:34 2.6 °C -3.6 °C 1023.9 hPa SSE 12.9 km/h 17.7 km/h 64% 0 mm 0 W/m2
06:40 2.5 °C -3.6 °C 1024.6 hPa SSE 11.3 km/h 14.5 km/h 64% 0 mm 0 W/m2
06:46 2.4 °C -3.7 °C 1023.9 hPa ESE 9.7 km/h 17.7 km/h 64% 0 mm 0 W/m2
06:52 2.4 °C -3.7 °C 1024.6 hPa SSE 11.3 km/h 12.9 km/h 64% 0 mm 5 W/m2
06:58 2.3 °C -3.6 °C 1024.3 hPa SSE 9.7 km/h 12.9 km/h 65% 0 mm 9 W/m2
07:04 2.3 °C -3.6 °C 1024.3 hPa SE 9.7 km/h 12.9 km/h 65% 0 mm 12 W/m2
07:10 2.4 °C -3.5 °C 1024.6 hPa South 12.9 km/h 20.9 km/h 65% 0 mm 16 W/m2
07:16 2.4 °C -3.5 °C 1024.6 hPa South 11.3 km/h 20.9 km/h 65% 0 mm 21 W/m2
07:22 2.5 °C -3.4 °C 1024.6 hPa SSE 11.3 km/h 12.9 km/h 65% 0 mm 30 W/m2
07:28 2.6 °C -3.3 °C 1024.9 hPa South 12.9 km/h 12.9 km/h 65% 0 mm 42 W/m2
07:34 2.7 °C -3.3 °C 1024.9 hPa SE 11.3 km/h 19.3 km/h 65% 0 mm 47 W/m2
07:40 2.7 °C -3.2 °C 1024.6 hPa SSE 11.3 km/h 11.3 km/h 65% 0 mm 47 W/m2
07:46 2.7 °C -3.2 °C 1024.6 hPa South 9.7 km/h 16.1 km/h 65% 0 mm 53 W/m2
07:52 2.8 °C -3.1 °C 1024.6 hPa South 9.7 km/h 14.5 km/h 65% 0 mm 47 W/m2
07:58 2.9 °C -3.1 °C 1024.6 hPa SSE 11.3 km/h 14.5 km/h 65% 0 mm 53 W/m2
08:04 3 °C -3.2 °C 1024.6 hPa South 9.7 km/h 16.1 km/h 64% 0 mm 111 W/m2
08:10 3.2 °C -2.9 °C 1024.6 hPa South 9.7 km/h 17.7 km/h 64% 0 mm 160 W/m2
08:16 3.3 °C -2.8 °C 1024.3 hPa South 11.3 km/h 20.9 km/h 64% 0 mm 139 W/m2
08:22 3.4 °C -2.9 °C 1023.9 hPa SSE 14.5 km/h 16.1 km/h 63% 0 mm 186 W/m2
08:28 3.7 °C -2.7 °C 1024.3 hPa SSE 14.5 km/h 16.1 km/h 63% 0 mm 213 W/m2
08:34 3.8 °C -2.6 °C 1024.6 hPa SE 11.3 km/h 22.5 km/h 63% 0 mm 243 W/m2
08:40 3.8 °C -2.6 °C 1024.3 hPa South 14.5 km/h 14.5 km/h 63% 0 mm 104 W/m2
08:46 3.8 °C -2.6 °C 1024.3 hPa South 14.5 km/h 14.5 km/h 63% 0 mm 193 W/m2
08:52 4.3 °C -2.2 °C 1024.3 hPa SSE 12.9 km/h 14.5 km/h 63% 0 mm 348 W/m2
08:58 4.4 °C -2.2 °C 1023.9 hPa SSE 11.3 km/h 17.7 km/h 62% 0 mm 246 W/m2
09:04 4.4 °C -2.2 °C 1023.9 hPa South 9.7 km/h 11.3 km/h 62% 0 mm 197 W/m2
09:10 4.7 °C -2 °C 1023.9 hPa South 9.7 km/h 14.5 km/h 62% 0 mm 260 W/m2
09:16 4.8 °C -1.9 °C 1023.9 hPa SE 11.3 km/h 16.1 km/h 62% 0 mm 257 W/m2
09:22 4.8 °C -1.9 °C 1023.9 hPa SE 11.3 km/h 14.5 km/h 62% 0 mm 229 W/m2
09:28 4.8 °C -1.8 °C 1023.6 hPa ESE 11.3 km/h 24.1 km/h 62% 0 mm 206 W/m2
09:34 4.9 °C -1.8 °C 1023.6 hPa SE 11.3 km/h 12.9 km/h 62% 0 mm 139 W/m2
09:40 4.8 °C -1.8 °C 1023.6 hPa SSE 11.3 km/h 11.3 km/h 62% 0 mm 116 W/m2
09:46 4.8 °C -1.7 °C 1023.6 hPa SSE 11.3 km/h 12.9 km/h 63% 0 mm 116 W/m2
09:52 4.8 °C -1.7 °C 1023.2 hPa South 9.7 km/h 9.7 km/h 63% 0 mm 163 W/m2
09:58 4.9 °C -1.6 °C 1022.9 hPa ESE 9.7 km/h 17.7 km/h 63% 0 mm 230 W/m2
10:04 5.1 °C -1.4 °C 1023.2 hPa SSE 11.3 km/h 11.3 km/h 63% 0 mm 246 W/m2
10:10 5.3 °C -1.4 °C 1023.2 hPa SSE 12.9 km/h 12.9 km/h 62% 0 mm 285 W/m2
10:16 5.8 °C -0.9 °C 1023.2 hPa South 9.7 km/h 12.9 km/h 62% 0 mm 315 W/m2
10:22 5.7 °C -1.1 °C 1022.9 hPa South 9.7 km/h 12.9 km/h 62% 0 mm 181 W/m2
10:28 5.6 °C -1.2 °C 1023.2 hPa SSE 11.3 km/h 12.9 km/h 62% 0 mm 207 W/m2
10:34 5.7 °C -1 °C 1023.6 hPa SE 11.3 km/h 11.3 km/h 62% 0 mm 281 W/m2
10:40 5.9 °C -0.8 °C 1022.9 hPa ESE 11.3 km/h 14.5 km/h 62% 0 mm 364 W/m2
10:46 6.2 °C -0.6 °C 1022.6 hPa SSE 12.9 km/h 14.5 km/h 62% 0 mm 288 W/m2
10:52 6.3 °C -0.7 °C 1022.6 hPa South 11.3 km/h 12.9 km/h 61% 0 mm 253 W/m2
10:58 6.6 °C -0.2 °C 1022.6 hPa South 8 km/h 12.9 km/h 62% 0 mm 332 W/m2
11:04 6.7 °C -0.3 °C 1022.2 hPa South 8 km/h 12.9 km/h 61% 0 mm 229 W/m2
11:10 6.7 °C -0.1 °C 1022.6 hPa SSE 9.7 km/h 20.9 km/h 62% 0 mm 243 W/m2
11:16 6.7 °C -0.1 °C 1022.2 hPa SSE 9.7 km/h 20.9 km/h 62% 0 mm 204 W/m2
11:22 6.8 °C 0 °C 1022.2 hPa SSE 11.3 km/h 12.9 km/h 62% 0 mm 207 W/m2
11:28 6.8 °C 0.1 °C 1022.2 hPa SSE 9.7 km/h 16.1 km/h 62% 0 mm 183 W/m2
11:34 6.9 °C 0.1 °C 1022.2 hPa SSE 9.7 km/h 17.7 km/h 62% 0 mm 141 W/m2
11:40 6.9 °C 0.1 °C 1021.9 hPa SE 8 km/h 8 km/h 62% 0 mm 91 W/m2
11:46 6.9 °C 0.3 °C 1021.9 hPa South 6.4 km/h 8 km/h 63% 0 mm 102 W/m2
11:52 6.8 °C 0.5 °C 1021.6 hPa South 8 km/h 8 km/h 64% 0 mm 121 W/m2
11:58 6.7 °C 0.8 °C 1021.6 hPa SE 9.7 km/h 14.5 km/h 66% 0 mm 118 W/m2
12:04 6.4 °C 0.9 °C 1021.2 hPa SE 11.3 km/h 14.5 km/h 68% 0 mm 141 W/m2
12:10 6.4 °C 1.1 °C 1021.2 hPa SSE 11.3 km/h 11.3 km/h 69% 0 mm 186 W/m2
12:16 6.4 °C 1.2 °C 1021.2 hPa SSE 11.3 km/h 16.1 km/h 69% 0 mm 190 W/m2
12:22 6.4 °C 1.2 °C 1020.9 hPa SSW 11.3 km/h 11.3 km/h 69% 0 mm 128 W/m2
12:28 6.5 °C 1.2 °C 1020.5 hPa South 12.9 km/h 22.5 km/h 69% 0 mm 176 W/m2
12:34 6.7 °C 1.4 °C 1020.2 hPa SSE 11.3 km/h 19.3 km/h 69% 0 mm 188 W/m2
12:40 6.9 °C 1.6 °C 1020.2 hPa SSE 8 km/h 12.9 km/h 69% 0 mm 149 W/m2
12:46 6.9 °C 1.7 °C 1020.2 hPa SE 6.4 km/h 12.9 km/h 69% 0 mm 132 W/m2
12:52 6.9 °C 1.8 °C 1020.2 hPa SSE 4.8 km/h 6.4 km/h 70% 0 mm 90 W/m2
12:58 6.9 °C 1.7 °C 1020.5 hPa SSE 1.6 km/h 6.4 km/h 69% 0 mm 46 W/m2
13:04 6.9 °C 1.4 °C 1020.5 hPa SSE 6.4 km/h 11.3 km/h 68% 0 mm 33 W/m2
13:10 6.8 °C 1.3 °C 1020.5 hPa SSW 11.3 km/h 11.3 km/h 68% 0 mm 35 W/m2
13:16 6.7 °C 1.4 °C 1020.9 hPa SSW 9.7 km/h 14.5 km/h 69% 0 mm 26 W/m2
13:22 6.7 °C 1.6 °C 1020.9 hPa South 9.7 km/h 9.7 km/h 70% 0 mm 30 W/m2
13:28 6.7 °C 1.8 °C 1020.5 hPa SSW 9.7 km/h 11.3 km/h 71% 0 mm 30 W/m2
13:34 6.6 °C 1.9 °C 1020.9 hPa ESE 9.7 km/h 11.3 km/h 72% 0 mm 28 W/m2
13:40 6.3 °C 1.8 °C 1020.5 hPa SSE 11.3 km/h 14.5 km/h 73% 0 mm 44 W/m2
13:46 5.9 °C 2.1 °C 1020.5 hPa SSE 11.3 km/h 14.5 km/h 76% 0 mm 33 W/m2
13:52 5.8 °C 2.2 °C 1020.5 hPa SSE 8 km/h 9.7 km/h 78% 0 mm 39 W/m2
13:58 5.5 °C 2.2 °C 1020.2 hPa SSE 6.4 km/h 9.7 km/h 79% 0 mm 35 W/m2
14:04 5.3 °C 2.2 °C 1020.2 hPa South 8 km/h 9.7 km/h 80% 0 mm 30 W/m2
14:10 5.2 °C 2.2 °C 1020.5 hPa South 8 km/h 8 km/h 81% 0 mm 16 W/m2
14:16 5.1 °C 2.1 °C 1020.2 hPa South 8 km/h 9.7 km/h 81% 0 mm 19 W/m2
14:22 5.2 °C 2.2 °C 1020.5 hPa South 9.7 km/h 9.7 km/h 81% 0 mm 32 W/m2
14:28 5.2 °C 2.2 °C 1020.5 hPa SSE 9.7 km/h 14.5 km/h 81% 0 mm 26 W/m2
14:34 5.1 °C 2.3 °C 1020.2 hPa SSE 9.7 km/h 19.3 km/h 82% 0 mm 21 W/m2
14:40 5.2 °C 2.3 °C 1020.5 hPa SSE 8 km/h 8 km/h 82% 0 mm 18 W/m2
14:46 5.2 °C 2.3 °C 1020.9 hPa South 6.4 km/h 11.3 km/h 82% 0 mm 14 W/m2
14:52 5.2 °C 2.3 °C 1021.2 hPa SSE 8 km/h 11.3 km/h 82% 4.83 mm 16 W/m2
14:58 5 °C 2.3 °C 1020.9 hPa SSE 8 km/h 11.3 km/h 83% 2.03 mm 19 W/m2
15:04 4.8 °C 2.3 °C 1020.9 hPa South 6.4 km/h 8 km/h 84% 2.03 mm 19 W/m2
15:10 4.7 °C 2.4 °C 1020.9 hPa SE 6.4 km/h 6.4 km/h 85% 1.27 mm 23 W/m2
15:16 4.7 °C 2.5 °C 1020.9 hPa SE 4.8 km/h 6.4 km/h 86% 0 mm 21 W/m2
15:22 4.6 °C 2.4 °C 1020.5 hPa SE 3.2 km/h 4.8 km/h 86% 0 mm 23 W/m2
15:28 4.6 °C 2.6 °C 1020.5 hPa SE 3.2 km/h 4.8 km/h 87% 0 mm 23 W/m2
15:34 4.6 °C 2.6 °C 1020.2 hPa SSE 3.2 km/h 4.8 km/h 87% 0 mm 32 W/m2
15:40 4.6 °C 2.6 °C 1020.2 hPa SSE 3.2 km/h 3.2 km/h 87% 0 mm 26 W/m2
15:46 4.5 °C 2.5 °C 1020.2 hPa ESE 4.8 km/h 12.9 km/h 87% 0 mm 18 W/m2
15:52 4.4 °C 2.6 °C 1020.2 hPa SE 4.8 km/h 11.3 km/h 88% 0 mm 32 W/m2
15:58 4.5 °C 2.7 °C 1020.2 hPa SE 6.4 km/h 11.3 km/h 88% 0 mm 19 W/m2
16:04 4.4 °C 2.6 °C 1019.9 hPa SE 6.4 km/h 6.4 km/h 88% 0 mm 21 W/m2
16:10 4.4 °C 2.6 °C 1020.2 hPa SE 6.4 km/h 6.4 km/h 88% 0 mm 18 W/m2
16:16 4.4 °C 2.8 °C 1020.2 hPa SE 6.4 km/h 8 km/h 89% 0 mm 28 W/m2
16:22 4.5 °C 2.8 °C 1020.2 hPa SE 4.8 km/h 4.8 km/h 89% 0 mm 26 W/m2
16:28 4.4 °C 2.8 °C 1020.2 hPa SE 1.6 km/h 4.8 km/h 89% 0 mm 19 W/m2
16:34 4.4 °C 2.7 °C 1020.2 hPa Calm   3.2 km/h 89% 0 mm 16 W/m2
16:40 4.3 °C 2.6 °C 1020.2 hPa ENE 1.6 km/h 6.4 km/h 89% 0 mm 14 W/m2
16:46 4.2 °C 2.5 °C 1020.2 hPa ENE 3.2 km/h 6.4 km/h 89% 0 mm 11 W/m2
16:52 4 °C 2.5 °C 1020.2 hPa ENE 1.6 km/h 3.2 km/h 90% 0 mm 9 W/m2
16:58 3.9 °C 2.4 °C 1020.2 hPa ENE 3.2 km/h 6.4 km/h 90% 0 mm 5 W/m2
17:04 3.9 °C 2.4 °C 1020.2 hPa ENE 3.2 km/h 6.4 km/h 90% 0 mm 5 W/m2
17:10 3.8 °C 2.3 °C 1020.2 hPa ENE 3.2 km/h 3.2 km/h 90% 0 mm 5 W/m2
17:16 3.7 °C 2.2 °C 1020.2 hPa ENE 1.6 km/h 3.2 km/h 90% 0 mm 0 W/m2
17:22 3.7 °C 2.4 °C 1020.2 hPa ENE 1.6 km/h 1.6 km/h 91% 0 mm 0 W/m2
17:28 3.7 °C 2.3 °C 1020.2 hPa ENE 1.6 km/h 3.2 km/h 91% 1.02 mm 0 W/m2
17:34 3.7 °C 2.4 °C 1020.2 hPa ENE 1.6 km/h 1.6 km/h 91% 1.02 mm 0 W/m2
17:40 3.8 °C 2.4 °C 1020.2 hPa Calm   1.6 km/h 91% 1.27 mm 0 W/m2
17:46 3.7 °C 2.3 °C 1020.2 hPa Calm   1.6 km/h 91% 3.3 mm 0 W/m2
17:52 3.6 °C 2.3 °C 1020.2 hPa Calm     91% 2.54 mm 0 W/m2
17:58 3.4 °C 2.1 °C 1020.2 hPa Calm   1.6 km/h 91% 3.05 mm 0 W/m2
18:04 3.6 °C 2.4 °C 1020.2 hPa ENE 1.6 km/h 3.2 km/h 92% 1.78 mm 0 W/m2
18:10 3.5 °C 2.3 °C 1020.2 hPa ENE 3.2 km/h 3.2 km/h 92% 2.29 mm 0 W/m2
18:16 3.5 °C 2.3 °C 1020.2 hPa ENE 1.6 km/h 3.2 km/h 92% 2.29 mm 0 W/m2
18:22 3.6 °C 2.4 °C 1020.2 hPa ENE 1.6 km/h 3.2 km/h 92% 4.06 mm 0 W/m2
18:28 3.5 °C 2.3 °C 1020.2 hPa ENE 3.2 km/h 4.8 km/h 92% 4.32 mm 0 W/m2
18:34 3.6 °C 2.4 °C 1020.2 hPa ENE 3.2 km/h 4.8 km/h 92% 2.79 mm 0 W/m2
18:40 3.6 °C 2.4 °C 1020.2 hPa ENE 3.2 km/h 3.2 km/h 92% 3.56 mm 0 W/m2
18:46 3.6 °C 2.4 °C 1019.9 hPa ENE 3.2 km/h 4.8 km/h 92% 2.54 mm 0 W/m2
18:52 3.7 °C 2.6 °C 1019.9 hPa ENE 3.2 km/h 3.2 km/h 92% 2.29 mm 0 W/m2
18:58 3.8 °C 2.6 °C 1019.9 hPa ENE 1.6 km/h 4.8 km/h 92% 7.62 mm 0 W/m2
19:04 3.8 °C 2.8 °C 1019.9 hPa ENE 1.6 km/h 4.8 km/h 93% 3.3 mm 0 W/m2
19:10 3.8 °C 2.7 °C 1019.5 hPa ENE 1.6 km/h 3.2 km/h 93% 3.56 mm 0 W/m2
19:16 3.8 °C 2.7 °C 1019.5 hPa East 3.2 km/h 3.2 km/h 92% 3.56 mm 0 W/m2
19:22 3.9 °C 2.9 °C 1019.2 hPa ENE 4.8 km/h 4.8 km/h 93% 2.29 mm 0 W/m2
19:28 3.9 °C 2.9 °C 1018.8 hPa ENE 4.8 km/h 6.4 km/h 93% 1.27 mm 0 W/m2
19:34 4.1 °C 3 °C 1018.8 hPa East 4.8 km/h 4.8 km/h 93% 0 mm 0 W/m2
19:40 4.2 °C 3.1 °C 1018.8 hPa ENE 3.2 km/h 4.8 km/h 93% 0 mm 0 W/m2
19:46 4.1 °C 3.1 °C 1018.5 hPa ENE 4.8 km/h 8 km/h 93% 0 mm 0 W/m2
19:52 3.9 °C 2.8 °C 1018.5 hPa ENE 4.8 km/h 4.8 km/h 93% 0 mm 0 W/m2
19:58 3.9 °C 2.9 °C 1018.5 hPa ENE 3.2 km/h 4.8 km/h 93% 0 mm 0 W/m2
20:04 4 °C 2.9 °C 1018.5 hPa NE 3.2 km/h 6.4 km/h 93% 0 mm 0 W/m2
20:10 4.2 °C 3.1 °C 1018.5 hPa NE 3.2 km/h 4.8 km/h 93% 0 mm 0 W/m2
20:16 4.1 °C 3.1 °C 1018.5 hPa NE 4.8 km/h 6.4 km/h 93% 0 mm 0 W/m2
20:22 4.2 °C 3.2 °C 1018.5 hPa NE 4.8 km/h 9.7 km/h 93% 0 mm 0 W/m2
20:28 4.2 °C 3.1 °C 1018.5 hPa ENE 4.8 km/h 9.7 km/h 93% 0 mm 0 W/m2
20:34 4.1 °C 3 °C 1018.8 hPa ENE 3.2 km/h 4.8 km/h 93% 0 mm 0 W/m2
20:40 3.9 °C 2.9 °C 1018.8 hPa ENE 1.6 km/h 1.6 km/h 93% 0 mm 0 W/m2
20:46 3.7 °C 2.7 °C 1019.2 hPa Calm   1.6 km/h 93% 0 mm 0 W/m2
20:52 3.4 °C 2.4 °C 1019.2 hPa Calm   1.6 km/h 93% 0 mm 0 W/m2
20:58 3.3 °C 2.3 °C 1019.2 hPa ENE 1.6 km/h 1.6 km/h 93% 0 mm 0 W/m2
21:04 3.3 °C 2.3 °C 1019.2 hPa ENE 1.6 km/h 1.6 km/h 93% 0 mm 0 W/m2
21:10 3.3 °C 2.3 °C 1018.8 hPa ENE 1.6 km/h 1.6 km/h 93% 0 mm 0 W/m2
21:16 3.1 °C 2.1 °C 1018.8 hPa Calm   3.2 km/h 93% 0 mm 0 W/m2
21:22 3.2 °C 2.2 °C 1018.8 hPa ENE 1.6 km/h 1.6 km/h 93% 0 mm 0 W/m2
21:28 3.1 °C 2.1 °C 1018.8 hPa ENE 1.6 km/h 1.6 km/h 93% 0 mm 0 W/m2
21:34 3.3 °C 2.3 °C 1018.8 hPa ENE 1.6 km/h 1.6 km/h 93% 0 mm 0 W/m2
21:40 3.4 °C 2.4 °C 1018.5 hPa ENE 1.6 km/h 3.2 km/h 93% 0 mm 0 W/m2
21:46 3.8 °C 2.7 °C 1018.5 hPa ENE 1.6 km/h 3.2 km/h 93% 0 mm 0 W/m2
21:52 3.7 °C 2.7 °C 1018.5 hPa ENE 1.6 km/h 3.2 km/h 93% 0 mm 0 W/m2
21:58 3.6 °C 2.6 °C 1018.5 hPa ENE 1.6 km/h 3.2 km/h 93% 0 mm 0 W/m2
22:04 3.5 °C 2.6 °C 1018.5 hPa ENE 1.6 km/h 1.6 km/h 94% 1.27 mm 0 W/m2
22:10 3.6 °C 2.6 °C 1018.5 hPa Calm     93% 1.27 mm 0 W/m2
22:16 3.7 °C 2.7 °C 1018.5 hPa Calm     93% 1.27 mm 0 W/m2
22:22 3.9 °C 3 °C 1018.8 hPa Calm     94% 0 mm 0 W/m2
22:28 3.9 °C 3 °C 1018.5 hPa Calm   1.6 km/h 94% 0 mm 0 W/m2
22:34 4.7 °C 3.8 °C 1018.5 hPa ENE 1.6 km/h 4.8 km/h 94% 0 mm 0 W/m2
22:40 6.4 °C 5.5 °C 1018.8 hPa SE 3.2 km/h 3.2 km/h 94% 0 mm 0 W/m2
22:46 6.7 °C 5.8 °C 1018.5 hPa SE 3.2 km/h 3.2 km/h 94% 0 mm 0 W/m2
22:52 6.7 °C 5.8 °C 1018.8 hPa SE 1.6 km/h 1.6 km/h 94% 0 mm 0 W/m2
22:58 6.4 °C 5.6 °C 1018.5 hPa Calm   1.6 km/h 94% 0 mm 0 W/m2
23:04 6.6 °C 5.7 °C 1018.5 hPa SE 1.6 km/h 3.2 km/h 94% 0 mm 0 W/m2
23:10 6.5 °C 5.6 °C 1018.5 hPa Calm     94% 0 mm 0 W/m2
23:16 6.2 °C 5.3 °C 1018.5 hPa Calm   1.6 km/h 94% 0 mm 0 W/m2
23:22 6.3 °C 5.4 °C 1018.5 hPa Calm   1.6 km/h 94% 1.27 mm 0 W/m2
23:28 6.1 °C 5.2 °C 1018.5 hPa Calm   1.6 km/h 94% 1.27 mm 0 W/m2
23:34 5.9 °C 5 °C 1018.5 hPa Calm   1.6 km/h 94% 1.02 mm 0 W/m2
23:40 5.9 °C 5.1 °C 1018.5 hPa Calm     94% 0 mm 0 W/m2
23:46 6.4 °C 5.5 °C 1018.5 hPa SE 1.6 km/h 1.6 km/h 94% 0 mm 0 W/m2
23:52 6.6 °C 5.7 °C 1018.5 hPa SE 1.6 km/h 1.6 km/h 94% 1.52 mm 0 W/m2
23:58 6.2 °C 5.3 °C 1018.5 hPa Calm   1.6 km/h 94% 1.52 mm 0 W/m2
Country Meadow, Clay, NY, USA
Compliments of Weather Underground - 2 mb